createdAt,value
2023-01-23T00:01:27.574Z,4.53
2023-01-23T00:03:55.734Z,4.69
2023-01-23T00:06:23.696Z,4.75
2023-01-23T00:08:50.899Z,4.71
2023-01-23T00:11:24.209Z,4.73
2023-01-23T00:13:51.718Z,4.71
2023-01-23T00:16:21.830Z,4.46
2023-01-23T00:18:50.127Z,4.29
2023-01-23T00:21:19.898Z,4.22
2023-01-23T00:23:49.588Z,3.97
2023-01-23T00:26:20.060Z,3.87
2023-01-23T00:28:48.228Z,3.83
2023-01-23T00:31:19.282Z,4.01
2023-01-23T00:33:47.165Z,3.97
2023-01-23T00:36:15.800Z,3.75
2023-01-23T00:38:43.263Z,3.54
2023-01-23T00:41:10.123Z,3.52
2023-01-23T00:43:37.105Z,3.78
2023-01-23T00:46:04.752Z,3.84
2023-01-23T00:48:31.992Z,3.88
2023-01-23T00:50:58.969Z,3.89
2023-01-23T00:53:25.956Z,3.83
2023-01-23T00:55:52.988Z,3.94
2023-01-23T00:58:19.870Z,4.00
2023-01-23T01:00:46.889Z,3.96
2023-01-23T01:03:14.058Z,4.07
2023-01-23T01:05:40.940Z,4.12
2023-01-23T01:08:07.870Z,3.99
2023-01-23T01:10:34.770Z,3.88
2023-01-23T01:13:03.169Z,3.76
2023-01-23T01:15:30.418Z,3.83
2023-01-23T01:17:58.700Z,3.89
2023-01-23T01:20:27.763Z,3.88
2023-01-23T01:22:56.289Z,3.79
2023-01-23T01:25:23.441Z,3.85
2023-01-23T01:27:50.458Z,3.95
2023-01-23T01:30:18.714Z,3.90
2023-01-23T01:32:45.840Z,3.83
2023-01-23T01:35:12.705Z,3.83
2023-01-23T01:37:41.311Z,3.97
2023-01-23T01:40:13.329Z,4.08
2023-01-23T01:42:44.821Z,4.13
2023-01-23T01:45:49.321Z,4.17
2023-01-23T01:48:17.604Z,4.08
2023-01-23T01:50:44.597Z,4.11
2023-01-23T01:53:11.825Z,4.14
2023-01-23T01:55:39.898Z,4.21
2023-01-23T01:58:08.554Z,4.28
2023-01-23T02:00:36.182Z,4.27
2023-01-23T02:03:03.866Z,4.28
2023-01-23T02:05:40.096Z,4.27
2023-01-23T02:08:15.893Z,4.23
2023-01-23T02:10:44.146Z,4.21
2023-01-23T02:13:31.839Z,4.19
2023-01-23T02:16:02.212Z,4.19
2023-01-23T02:18:31.589Z,4.18
2023-01-23T02:21:02.006Z,4.15
2023-01-23T02:23:56.991Z,4.13
2023-01-23T02:26:47.652Z,4.13
2023-01-23T02:29:15.511Z,4.12
2023-01-23T02:31:42.425Z,4.09
2023-01-23T02:34:11.248Z,4.09
2023-01-23T02:36:38.736Z,4.07
2023-01-23T02:39:10.026Z,4.02
2023-01-23T02:41:40.077Z,3.99
2023-01-23T02:44:16.866Z,3.96
2023-01-23T02:46:44.099Z,3.96
2023-01-23T02:49:11.445Z,3.98
2023-01-23T02:51:38.505Z,3.97
2023-01-23T02:54:05.665Z,3.93
2023-01-23T02:56:32.514Z,3.82
2023-01-23T02:58:59.633Z,3.70
2023-01-23T03:01:26.913Z,3.78
2023-01-23T03:03:54.785Z,3.79
2023-01-23T03:06:21.944Z,3.81
2023-01-23T03:08:48.856Z,3.28
2023-01-23T03:11:18.125Z,3.08
2023-01-23T03:13:47.031Z,3.16
2023-01-23T03:16:13.994Z,3.24
2023-01-23T03:18:53.552Z,3.37
2023-01-23T03:21:21.304Z,3.37
2023-01-23T03:23:48.303Z,3.44
2023-01-23T03:26:16.112Z,3.30
2023-01-23T03:28:43.042Z,3.42
2023-01-23T03:31:10.664Z,3.38
2023-01-23T03:33:37.805Z,3.35
2023-01-23T03:36:05.683Z,3.35
2023-01-23T03:38:32.609Z,3.35
2023-01-23T03:40:59.441Z,3.34
2023-01-23T03:43:30.597Z,3.38
2023-01-23T03:45:57.677Z,3.33
2023-01-23T03:48:24.587Z,3.18
2023-01-23T03:50:51.606Z,3.00
2023-01-23T03:53:18.468Z,2.65
2023-01-23T03:55:46.739Z,2.75
2023-01-23T03:58:14.203Z,2.95
2023-01-23T04:00:41.082Z,2.95
2023-01-23T04:03:08.770Z,2.61
2023-01-23T04:05:35.753Z,2.49
2023-01-23T04:08:02.998Z,2.61
2023-01-23T04:10:30.144Z,2.73
2023-01-23T04:12:56.995Z,2.76
2023-01-23T04:15:23.982Z,2.58
2023-01-23T04:17:50.871Z,2.66
2023-01-23T04:20:18.068Z,2.41
2023-01-23T04:22:45.309Z,2.26
2023-01-23T04:25:12.770Z,2.25
2023-01-23T04:27:39.679Z,2.32
2023-01-23T04:30:07.214Z,2.30
2023-01-23T04:32:34.042Z,2.55
2023-01-23T04:35:00.912Z,2.74
2023-01-23T04:37:27.795Z,2.69
2023-01-23T04:39:54.651Z,2.38
2023-01-23T04:42:21.664Z,2.34
2023-01-23T04:44:48.487Z,2.10
2023-01-23T04:47:15.478Z,2.08
2023-01-23T04:49:42.701Z,2.13
2023-01-23T04:52:09.637Z,2.11
2023-01-23T04:54:36.517Z,2.04
2023-01-23T04:57:03.417Z,1.93
2023-01-23T04:59:30.290Z,1.89
2023-01-23T05:01:57.450Z,1.90
2023-01-23T05:04:24.291Z,2.23
2023-01-23T05:06:51.133Z,2.45
2023-01-23T05:09:17.959Z,2.71
2023-01-23T05:11:45.939Z,2.77
2023-01-23T05:14:12.769Z,2.72
2023-01-23T05:16:39.762Z,2.70
2023-01-23T05:19:06.711Z,2.65
2023-01-23T05:21:33.670Z,2.57
2023-01-23T05:24:01.272Z,2.54
2023-01-23T05:26:28.243Z,2.79
2023-01-23T05:28:55.172Z,2.90
2023-01-23T05:31:22.209Z,2.96
2023-01-23T05:33:49.109Z,3.02
2023-01-23T05:36:18.413Z,2.91
2023-01-23T05:38:45.586Z,2.76
2023-01-23T05:41:12.609Z,2.73
2023-01-23T05:43:39.612Z,2.72
2023-01-23T05:46:06.720Z,2.75
2023-01-23T05:48:33.813Z,2.80
2023-01-23T05:51:03.372Z,2.83
2023-01-23T05:53:30.362Z,2.79
2023-01-23T05:55:57.225Z,2.83
2023-01-23T05:58:24.113Z,3.02
2023-01-23T06:00:51.039Z,3.11
2023-01-23T06:03:17.844Z,3.28
2023-01-23T06:05:44.702Z,3.46
2023-01-23T06:08:11.719Z,3.42
2023-01-23T06:10:38.981Z,3.39
2023-01-23T06:13:06.158Z,3.36
2023-01-23T06:15:33.072Z,3.42
2023-01-23T06:17:59.943Z,3.47
2023-01-23T06:20:26.757Z,3.46
2023-01-23T06:22:53.637Z,3.56
2023-01-23T06:25:20.652Z,3.79
2023-01-23T06:27:47.724Z,4.03
2023-01-23T06:30:15.052Z,4.18
2023-01-23T06:32:42.156Z,4.23
2023-01-23T06:35:09.313Z,4.36
2023-01-23T06:37:36.289Z,4.51
2023-01-23T06:40:03.359Z,4.59
2023-01-23T06:42:30.260Z,4.71
2023-01-23T06:44:57.084Z,4.88
2023-01-23T06:47:23.935Z,5.09
2023-01-23T06:49:50.923Z,5.05
2023-01-23T06:52:17.843Z,4.98
2023-01-23T06:54:44.749Z,4.88
2023-01-23T06:57:11.571Z,4.93
2023-01-23T06:59:39.489Z,5.13
2023-01-23T07:02:06.687Z,5.35
2023-01-23T07:04:33.698Z,5.25
2023-01-23T07:07:00.659Z,5.10
2023-01-23T07:09:27.484Z,4.97
2023-01-23T07:11:54.277Z,5.00
2023-01-23T07:14:21.220Z,5.15
2023-01-23T07:16:48.231Z,5.44
2023-01-23T07:19:15.138Z,5.65
2023-01-23T07:21:42.134Z,5.85
2023-01-23T07:24:09.064Z,5.84
2023-01-23T07:26:35.959Z,5.67
2023-01-23T07:29:02.879Z,5.36
2023-01-23T07:31:29.774Z,5.32
2023-01-23T07:33:56.811Z,5.51
2023-01-23T07:36:23.634Z,5.72
2023-01-23T07:38:50.629Z,6.06
2023-01-23T07:41:17.523Z,5.98
2023-01-23T07:43:44.481Z,6.12
2023-01-23T07:46:11.434Z,6.26
2023-01-23T07:48:38.666Z,6.39
2023-01-23T07:51:06.314Z,6.60
2023-01-23T07:53:36.151Z,6.78
2023-01-23T07:56:06.477Z,6.88
2023-01-23T07:58:33.345Z,6.81
2023-01-23T08:01:00.596Z,6.97
2023-01-23T08:03:27.493Z,6.96
2023-01-23T08:05:54.466Z,7.10
2023-01-23T08:08:21.377Z,7.11
2023-01-23T08:10:48.193Z,7.18
2023-01-23T08:13:15.126Z,7.21
2023-01-23T08:15:41.921Z,7.28
2023-01-23T08:18:08.819Z,7.38
2023-01-23T08:20:35.712Z,7.53
2023-01-23T08:23:02.712Z,7.42
2023-01-23T08:25:30.027Z,7.60
2023-01-23T08:27:57.170Z,7.80
2023-01-23T08:30:23.980Z,7.86
2023-01-23T08:32:50.810Z,7.92
2023-01-23T08:35:17.679Z,7.68
2023-01-23T08:37:44.575Z,7.87
2023-01-23T08:40:12.100Z,7.83
2023-01-23T08:42:38.997Z,8.21
2023-01-23T08:45:06.323Z,8.46
2023-01-23T08:47:33.251Z,8.48
2023-01-23T08:50:00.135Z,8.63
2023-01-23T08:52:27.030Z,8.61
2023-01-23T08:54:53.873Z,8.76
2023-01-23T08:57:20.853Z,8.73
2023-01-23T08:59:47.767Z,8.77
2023-01-23T09:02:14.559Z,8.98
2023-01-23T09:04:41.530Z,9.04
2023-01-23T09:07:08.677Z,8.96
2023-01-23T09:09:35.767Z,8.99
2023-01-23T09:12:02.653Z,9.21
2023-01-23T09:14:29.553Z,9.14
2023-01-23T09:16:56.455Z,9.23
2023-01-23T09:19:23.394Z,9.33
2023-01-23T09:21:53.549Z,9.13
2023-01-23T09:24:20.421Z,9.26
2023-01-23T09:26:47.281Z,9.45
2023-01-23T09:29:15.050Z,9.83
2023-01-23T09:31:42.042Z,9.94
2023-01-23T09:34:08.989Z,10.08
2023-01-23T09:36:42.929Z,10.18
2023-01-23T09:39:11.268Z,10.11
2023-01-23T09:41:39.797Z,10.17
2023-01-23T09:44:18.523Z,10.12
2023-01-23T09:46:59.469Z,10.39
2023-01-23T09:49:31.231Z,10.45
2023-01-23T09:52:12.374Z,10.31
2023-01-23T09:54:44.651Z,10.51
2023-01-23T09:57:19.837Z,10.70
2023-01-23T10:00:13.336Z,10.66
2023-01-23T10:02:43.550Z,10.89
2023-01-23T10:05:15.233Z,10.93
2023-01-23T10:07:53.399Z,10.62
2023-01-23T10:10:37.288Z,10.66
2023-01-23T10:13:35.193Z,10.94
2023-01-23T10:16:19.228Z,10.96
2023-01-23T10:19:15.676Z,11.05
2023-01-23T10:21:55.567Z,10.82
2023-01-23T10:24:39.888Z,10.95
2023-01-23T10:27:20.964Z,10.74
2023-01-23T10:29:59.607Z,11.01
2023-01-23T10:32:31.935Z,10.96
2023-01-23T10:35:15.636Z,10.90
2023-01-23T10:38:00.719Z,10.99
2023-01-23T10:40:28.226Z,11.12
2023-01-23T10:42:55.059Z,11.22
2023-01-23T10:45:22.703Z,11.37
2023-01-23T10:47:54.558Z,11.09
2023-01-23T10:50:36.603Z,11.12
2023-01-23T10:53:09.017Z,11.21
2023-01-23T10:55:36.150Z,11.19
2023-01-23T10:58:02.997Z,10.97
2023-01-23T11:00:39.861Z,11.17
2023-01-23T11:03:22.101Z,11.17
2023-01-23T11:06:03.972Z,11.20
2023-01-23T11:08:34.912Z,11.19
2023-01-23T11:11:16.809Z,11.26
2023-01-23T11:13:45.923Z,11.42
2023-01-23T11:16:24.003Z,11.23
2023-01-23T11:19:03.070Z,10.93
2023-01-23T11:21:35.133Z,11.06
2023-01-23T11:24:39.197Z,11.38
2023-01-23T11:27:19.661Z,11.81
2023-01-23T11:30:01.415Z,12.27
2023-01-23T11:32:33.071Z,12.72
2023-01-23T11:35:24.846Z,12.53
2023-01-23T11:37:53.720Z,12.90
2023-01-23T11:40:21.009Z,12.72
2023-01-23T11:42:48.263Z,12.95
2023-01-23T11:45:24.395Z,13.26
2023-01-23T11:48:24.355Z,13.62
2023-01-23T11:51:41.524Z,13.74
2023-01-23T11:54:37.826Z,13.12
2023-01-23T11:57:38.657Z,12.68
2023-01-23T12:00:35.092Z,12.21
2023-01-23T12:03:20.728Z,12.59
2023-01-23T12:06:18.914Z,12.56
2023-01-23T12:09:05.207Z,12.36
2023-01-23T12:12:01.003Z,12.18
2023-01-23T12:14:44.336Z,11.93
2023-01-23T12:17:46.352Z,11.78
2023-01-23T12:20:33.673Z,11.52
2023-01-23T12:23:26.307Z,11.65
2023-01-23T12:26:14.564Z,11.84
2023-01-23T12:28:50.326Z,12.18
2023-01-23T12:31:34.585Z,12.01
2023-01-23T12:34:22.041Z,11.49
2023-01-23T12:37:14.259Z,11.37
2023-01-23T12:40:23.340Z,11.41
2023-01-23T12:43:16.272Z,11.63
2023-01-23T12:45:51.790Z,11.52
2023-01-23T12:48:52.481Z,11.44
2023-01-23T12:51:24.586Z,11.37
2023-01-23T12:53:57.461Z,11.40
2023-01-23T12:56:35.318Z,11.14
2023-01-23T12:59:14.183Z,11.01
2023-01-23T13:02:00.725Z,11.11
2023-01-23T13:04:27.517Z,11.36
2023-01-23T13:07:24.295Z,11.63
2023-01-23T13:09:56.760Z,11.96
2023-01-23T13:12:25.762Z,11.93
2023-01-23T13:15:34.372Z,11.86
2023-01-23T13:18:05.780Z,11.86
2023-01-23T13:20:37.838Z,11.85
2023-01-23T13:23:32.285Z,11.88
2023-01-23T13:26:17.359Z,11.81
2023-01-23T13:28:46.586Z,11.66
2023-01-23T13:31:37.656Z,11.40
2023-01-23T13:34:27.858Z,11.73
2023-01-23T13:36:54.865Z,11.83
2023-01-23T13:39:26.004Z,12.03
2023-01-23T13:42:14.741Z,11.48
2023-01-23T13:45:19.537Z,11.10
2023-01-23T14:24:31.887Z,9.96
2023-01-23T14:27:09.549Z,9.93
2023-01-23T14:29:37.297Z,9.86
2023-01-23T14:32:04.607Z,9.96
2023-01-23T14:34:39.540Z,10.04
2023-01-23T14:37:10.813Z,9.96
2023-01-23T14:39:39.780Z,9.99
2023-01-23T14:42:11.615Z,9.92
2023-01-23T14:44:47.171Z,9.93
2023-01-23T14:47:24.319Z,9.90
2023-01-23T14:49:51.795Z,9.79
2023-01-23T14:52:27.590Z,9.68
2023-01-23T14:54:57.740Z,9.62
2023-01-23T14:57:28.125Z,9.51
2023-01-23T14:59:57.537Z,9.50
2023-01-23T15:02:30.194Z,9.45
2023-01-23T15:05:10.787Z,9.41
2023-01-23T15:07:58.275Z,9.33
2023-01-23T15:10:27.360Z,9.21
2023-01-23T15:12:59.278Z,9.14
2023-01-23T15:15:28.021Z,9.09
2023-01-23T15:17:55.803Z,8.99
2023-01-23T15:20:28.925Z,8.95
2023-01-23T15:22:56.084Z,8.79
2023-01-23T15:25:31.837Z,8.69
2023-01-23T15:27:58.890Z,8.66
2023-01-23T15:30:40.635Z,8.46
2023-01-23T15:33:25.385Z,8.33
2023-01-23T15:35:52.987Z,8.22
2023-01-23T15:38:19.953Z,8.19
2023-01-23T15:40:46.866Z,8.11
2023-01-23T15:43:19.262Z,8.01
2023-01-23T15:45:47.202Z,7.94
2023-01-23T15:48:14.078Z,7.97
2023-01-23T15:50:41.514Z,7.94
2023-01-23T15:53:15.184Z,7.89
2023-01-23T15:55:42.123Z,7.91
2023-01-23T15:58:14.946Z,7.89
2023-01-23T16:00:41.996Z,7.81
2023-01-23T16:03:08.862Z,7.78
2023-01-23T16:05:37.755Z,7.71
2023-01-23T16:08:11.569Z,7.66
2023-01-23T16:10:39.517Z,7.67
2023-01-23T16:13:06.700Z,7.67
2023-01-23T16:15:35.524Z,7.66
2023-01-23T16:18:04.056Z,7.66
2023-01-23T16:20:36.771Z,7.66
2023-01-23T16:23:18.152Z,7.72
2023-01-23T16:25:46.361Z,7.62
2023-01-23T16:28:19.696Z,7.12
2023-01-23T16:30:47.985Z,7.18
2023-01-23T16:33:15.229Z,7.33
2023-01-23T16:35:42.487Z,7.50
2023-01-23T16:38:19.991Z,7.29
2023-01-23T16:40:51.487Z,7.01
2023-01-23T16:43:20.632Z,6.90
2023-01-23T16:45:47.577Z,6.93
2023-01-23T16:48:21.794Z,7.07
2023-01-23T16:51:17.409Z,7.16
2023-01-23T16:53:49.651Z,7.13
2023-01-23T16:56:23.585Z,7.47
2023-01-23T16:58:51.774Z,7.27
2023-01-23T17:01:22.738Z,7.27
2023-01-23T17:03:57.197Z,7.42
2023-01-23T17:06:24.212Z,7.42
2023-01-23T17:08:54.047Z,7.33
2023-01-23T17:11:24.712Z,7.19
2023-01-23T17:13:58.685Z,7.18
2023-01-23T17:16:28.281Z,7.19
2023-01-23T17:18:57.454Z,7.28
2023-01-23T17:21:27.815Z,7.33
2023-01-23T17:23:54.750Z,7.34
2023-01-23T17:26:21.792Z,7.31
2023-01-23T17:28:48.720Z,7.32
2023-01-23T17:31:22.589Z,7.38
2023-01-23T17:33:50.316Z,7.45
2023-01-23T17:36:17.622Z,7.50
2023-01-23T17:38:49.103Z,7.54
2023-01-23T17:41:17.866Z,7.56
2023-01-23T17:43:47.245Z,7.58
2023-01-23T17:46:24.290Z,7.58
2023-01-23T17:48:51.345Z,7.48
2023-01-23T17:51:19.832Z,7.45
2023-01-23T17:53:47.331Z,7.49
2023-01-23T17:56:14.673Z,7.51
2023-01-23T17:58:41.953Z,7.49
2023-01-23T18:01:21.447Z,7.49
2023-01-23T18:03:52.972Z,7.45
2023-01-23T18:06:20.521Z,7.45
2023-01-23T18:08:47.452Z,7.45
2023-01-23T18:11:23.209Z,7.40
2023-01-23T18:14:08.138Z,7.40
2023-01-23T18:16:42.272Z,7.33
2023-01-23T18:19:21.656Z,7.18
2023-01-23T18:22:00.060Z,7.09
2023-01-23T18:24:32.515Z,7.16
2023-01-23T18:27:24.116Z,7.17
2023-01-23T18:30:28.363Z,7.20
2023-01-23T18:33:12.066Z,7.17
2023-01-23T18:35:57.526Z,7.14
2023-01-23T18:38:32.706Z,7.16
2023-01-23T18:41:16.692Z,7.17
2023-01-23T18:43:56.598Z,7.19
2023-01-23T18:46:24.256Z,7.18
2023-01-23T18:48:54.666Z,7.18
2023-01-23T18:51:49.691Z,7.20
2023-01-23T18:54:42.975Z,7.20
2023-01-23T18:57:30.111Z,7.24
2023-01-23T19:00:18.740Z,7.12
2023-01-23T19:02:48.935Z,7.07
2023-01-23T19:05:15.727Z,7.07
2023-01-23T19:07:43.773Z,7.02
2023-01-23T19:10:22.661Z,7.02
2023-01-23T19:13:13.488Z,7.02
2023-01-23T19:16:00.107Z,6.87
2023-01-23T19:18:45.687Z,6.93
2023-01-23T19:21:17.400Z,6.94
2023-01-23T19:24:03.927Z,6.97
2023-01-23T19:26:34.077Z,6.38
2023-01-23T19:29:19.317Z,6.39
2023-01-23T19:32:02.825Z,6.44
2023-01-23T19:34:30.770Z,6.39
2023-01-23T19:36:57.756Z,6.40
2023-01-23T19:39:24.666Z,6.43
2023-01-23T19:41:51.677Z,6.40
2023-01-23T19:44:20.984Z,6.41
2023-01-23T19:46:47.936Z,6.36
2023-01-23T19:49:14.809Z,6.29
2023-01-23T19:51:43.467Z,6.09
2023-01-23T19:54:14.920Z,5.91
2023-01-23T19:56:42.187Z,5.44
2023-01-23T19:59:09.359Z,5.71
2023-01-23T20:01:47.538Z,5.84
2023-01-23T20:04:16.649Z,5.95
2023-01-23T20:06:44.356Z,5.79
2023-01-23T20:09:12.351Z,5.63
2023-01-23T20:11:39.210Z,5.21
2023-01-23T20:14:06.337Z,5.48
2023-01-23T20:16:33.271Z,5.64
2023-01-23T20:19:00.226Z,5.69
2023-01-23T20:21:27.736Z,5.76
2023-01-23T20:23:54.658Z,5.82
2023-01-23T20:26:21.802Z,5.22
2023-01-23T20:28:57.692Z,5.01
2023-01-23T20:31:27.743Z,5.12
2023-01-23T20:33:54.771Z,5.21
2023-01-23T20:36:21.697Z,5.27
2023-01-23T20:38:48.617Z,5.36
2023-01-23T20:41:18.203Z,5.47
2023-01-23T20:43:45.688Z,5.47
2023-01-23T20:46:14.176Z,5.49
2023-01-23T20:48:43.657Z,5.51
2023-01-23T20:51:11.864Z,5.48
2023-01-23T20:53:39.631Z,5.50
2023-01-23T20:56:09.317Z,5.59
2023-01-23T20:58:38.754Z,5.45
2023-01-23T21:01:05.761Z,5.14
2023-01-23T21:03:32.607Z,5.33
2023-01-23T21:05:59.439Z,5.33
2023-01-23T21:08:26.350Z,5.24
2023-01-23T21:10:53.313Z,5.36
2023-01-23T21:13:20.641Z,5.45
2023-01-23T21:16:01.744Z,5.02
2023-01-23T21:18:28.737Z,4.82
2023-01-23T21:20:55.612Z,5.03
2023-01-23T21:23:22.432Z,5.07
2023-01-23T21:25:49.291Z,5.16
2023-01-23T21:28:16.205Z,5.14
2023-01-23T21:30:43.227Z,5.18
2023-01-23T21:33:10.197Z,5.25
2023-01-23T21:35:37.127Z,5.28
2023-01-23T21:38:04.005Z,5.33
2023-01-23T21:40:30.856Z,5.34
2023-01-23T21:42:57.809Z,5.33
2023-01-23T21:45:24.709Z,5.29
2023-01-23T21:47:51.682Z,5.32
2023-01-23T21:50:18.554Z,5.33
2023-01-23T21:52:45.442Z,5.36
2023-01-23T21:55:12.293Z,5.37
2023-01-23T21:57:39.311Z,5.39
2023-01-23T22:00:06.825Z,5.45
2023-01-23T22:02:33.880Z,5.18
2023-01-23T22:05:00.865Z,5.06
2023-01-23T22:07:27.828Z,4.73
2023-01-23T22:09:54.686Z,4.78
2023-01-23T22:12:21.662Z,4.98
2023-01-23T22:14:48.511Z,4.95
2023-01-23T22:17:15.343Z,5.01
2023-01-23T22:19:42.238Z,5.02
2023-01-23T22:22:09.103Z,5.05
2023-01-23T22:24:35.976Z,5.05
2023-01-23T22:27:03.118Z,5.12
2023-01-23T22:29:30.018Z,5.10
2023-01-23T22:31:57.036Z,5.07
2023-01-23T22:34:23.992Z,5.06
2023-01-23T22:36:50.902Z,5.08
2023-01-23T22:39:17.875Z,5.10
2023-01-23T22:41:46.133Z,5.11
2023-01-23T22:44:13.856Z,5.10
2023-01-23T22:46:40.659Z,5.10
2023-01-23T22:49:07.584Z,5.03
2023-01-23T22:51:34.461Z,4.90
2023-01-23T22:54:01.357Z,4.96
2023-01-23T22:56:29.122Z,4.97
2023-01-23T22:58:56.934Z,5.01
2023-01-23T23:01:24.855Z,4.99
2023-01-23T23:03:51.834Z,4.79
2023-01-23T23:06:20.294Z,4.82
2023-01-23T23:08:48.392Z,4.87
2023-01-23T23:11:20.979Z,4.87
2023-01-23T23:13:49.007Z,4.89
2023-01-23T23:16:17.110Z,4.86
2023-01-23T23:18:45.719Z,4.87
2023-01-23T23:21:15.083Z,4.90
2023-01-23T23:23:42.410Z,4.91
2023-01-23T23:26:11.573Z,4.88
2023-01-23T23:28:39.372Z,4.89
2023-01-23T23:31:08.359Z,4.92
2023-01-23T23:33:35.623Z,4.84
2023-01-23T23:36:02.483Z,4.72
2023-01-23T23:38:29.334Z,4.70
2023-01-23T23:41:04.195Z,4.74
2023-01-23T23:43:31.505Z,4.77
2023-01-23T23:46:01.230Z,4.78
2023-01-23T23:48:30.357Z,4.80
2023-01-23T23:51:00.306Z,4.76
2023-01-23T23:53:27.747Z,4.77
2023-01-23T23:55:54.852Z,4.79
2023-01-23T23:58:21.686Z,4.79
